createdAt,value
2019-06-01T00:04:36.390Z,94937.44
2019-06-01T00:09:39.030Z,94930.47
2019-06-01T00:14:41.679Z,94931.02
2019-06-01T00:19:44.021Z,94935.45
2019-06-01T00:24:45.944Z,94930.33
2019-06-01T00:29:49.489Z,94926.94
2019-06-01T00:34:51.856Z,94925.20
2019-06-01T00:39:53.994Z,94931.28
2019-06-01T00:44:55.907Z,94924.92
2019-06-01T00:49:57.797Z,94926.23
2019-06-01T00:54:59.684Z,94925.39
2019-06-01T01:00:01.587Z,94927.73
2019-06-01T01:05:18.758Z,94923.75
2019-06-01T01:10:20.598Z,94917.13
2019-06-01T01:15:22.453Z,94909.81
2019-06-01T01:20:24.475Z,94903.41
2019-06-01T01:25:26.308Z,94905.17
2019-06-01T01:30:29.230Z,94901.41
2019-06-01T01:35:31.103Z,94891.04
2019-06-01T01:40:32.943Z,94884.48
2019-06-01T01:45:34.778Z,94890.67
2019-06-01T01:50:36.729Z,94884.48
2019-06-01T01:55:38.535Z,94876.72
2019-06-01T02:00:43.459Z,94878.97
2019-06-01T02:05:45.496Z,94866.30
2019-06-01T02:10:47.442Z,94867.55
2019-06-01T02:15:49.256Z,94865.94
2019-06-01T02:20:52.255Z,94868.88
2019-06-01T02:25:54.862Z,94861.30
2019-06-01T02:30:57.910Z,94860.45
2019-06-01T02:36:00.700Z,94864.06
2019-06-01T02:41:05.506Z,94866.92
2019-06-01T02:46:07.707Z,94870.20
2019-06-01T02:51:10.070Z,94871.64
2019-06-01T02:56:11.956Z,94868.23
2019-06-01T03:01:34.805Z,94873.39
2019-06-01T03:06:39.844Z,94875.61
2019-06-01T03:11:42.877Z,94881.91
2019-06-01T03:16:48.305Z,94890.37
2019-06-01T03:21:52.547Z,94892.23
2019-06-01T03:26:54.910Z,94896.91
2019-06-01T03:32:17.653Z,94894.59
2019-06-01T03:37:01.176Z,94899.88
2019-06-01T03:42:03.406Z,94898.86
2019-06-01T03:47:05.708Z,94906.27
2019-06-01T03:52:08.821Z,94905.58
2019-06-01T03:57:11.263Z,94905.00
2019-06-01T04:02:13.541Z,94903.22
2019-06-01T04:07:15.393Z,94906.34
2019-06-01T04:12:17.213Z,94906.64
2019-06-01T04:17:19.076Z,94908.41
2019-06-01T04:22:20.877Z,94910.85
2019-06-01T04:27:22.811Z,94903.89
2019-06-01T04:32:24.679Z,94909.93
2019-06-01T04:37:26.556Z,94904.63
2019-06-01T04:42:29.889Z,94909.48
2019-06-01T04:47:31.695Z,94914.98
2019-06-01T04:52:33.529Z,94915.70
2019-06-01T04:57:36.622Z,94912.82
2019-06-01T05:02:38.655Z,94917.63
2019-06-01T05:07:40.505Z,94909.92
2019-06-01T05:12:42.379Z,94912.02
2019-06-01T05:17:44.317Z,94911.25
2019-06-01T05:22:46.120Z,94908.17
2019-06-01T05:27:48.052Z,94913.21
2019-06-01T05:32:49.901Z,94908.86
2019-06-01T05:37:51.782Z,94917.72
2019-06-01T05:42:53.672Z,94921.00
2019-06-01T05:47:55.616Z,94923.69
2019-06-01T05:52:57.462Z,94921.84
2019-06-01T05:57:59.392Z,94927.39
2019-06-01T06:03:01.291Z,94929.15
2019-06-01T06:08:03.327Z,94936.45
2019-06-01T06:13:05.251Z,94931.80
2019-06-01T06:18:07.086Z,94929.24
2019-06-01T06:23:08.981Z,94928.83
2019-06-01T06:28:10.783Z,94926.93
2019-06-01T06:33:13.203Z,94928.98
2019-06-01T06:38:15.695Z,94929.50
2019-06-01T06:43:24.446Z,94922.21
2019-06-01T06:48:23.213Z,94915.48
2019-06-01T06:53:34.582Z,94916.81
2019-06-01T06:58:29.184Z,94917.54
2019-06-01T07:03:31.153Z,94932.35
2019-06-01T07:08:32.995Z,94928.16
2019-06-01T07:13:35.291Z,94941.52
2019-06-01T07:18:38.863Z,94932.13
2019-06-01T07:23:40.877Z,94941.02
2019-06-01T07:28:44.668Z,94950.70
2019-06-01T07:33:46.654Z,94950.94
2019-06-01T07:44:10.150Z,94939.86
2019-06-01T07:49:12.397Z,94940.50
2019-06-01T07:54:14.304Z,94938.61
2019-06-01T07:59:16.166Z,94936.77
2019-06-01T08:04:18.137Z,94928.77
2019-06-01T08:09:22.011Z,94925.23
2019-06-01T08:14:24.495Z,94929.27
2019-06-01T08:19:30.128Z,94922.91
2019-06-01T08:24:32.459Z,94918.16
2019-06-01T08:29:34.576Z,94917.75
2019-06-01T08:34:36.481Z,94922.83
2019-06-01T08:39:38.296Z,94914.91
2019-06-01T08:44:41.271Z,94918.88
2019-06-01T08:49:43.211Z,94915.55
2019-06-01T08:54:47.506Z,94917.00
2019-06-01T08:59:51.656Z,94919.09
2019-06-01T09:04:53.523Z,94918.97
2019-06-01T09:09:55.567Z,94917.09
2019-06-01T09:14:57.500Z,94921.42
2019-06-01T09:19:59.326Z,94922.67
2019-06-01T09:25:01.338Z,94917.77
2019-06-01T09:30:05.766Z,94920.43
2019-06-01T09:35:08.137Z,94927.72
2019-06-01T09:40:11.074Z,94928.62
2019-06-01T09:45:13.799Z,94916.91
2019-06-01T09:50:15.535Z,94916.91
2019-06-01T09:55:17.701Z,94915.09
2019-06-01T10:00:19.916Z,94908.36
2019-06-01T10:05:21.950Z,94893.26
2019-06-01T10:10:23.752Z,94892.53
2019-06-01T10:15:25.825Z,94895.09
2019-06-01T10:20:27.640Z,94888.91
2019-06-01T10:25:30.369Z,94878.31
2019-06-01T10:30:33.810Z,94880.75
2019-06-01T10:35:36.953Z,94879.98
2019-06-01T10:40:39.869Z,94875.02
2019-06-01T10:45:43.461Z,94872.00
2019-06-01T10:50:45.580Z,94865.87
2019-06-01T10:55:47.534Z,94867.48
2019-06-01T11:00:51.269Z,94853.02
2019-06-01T11:05:54.134Z,94859.51
2019-06-01T11:10:56.117Z,94852.58
2019-06-01T11:15:59.609Z,94850.42
2019-06-01T11:21:01.574Z,94852.27
2019-06-01T11:26:03.760Z,94848.09
2019-06-01T11:31:05.664Z,94836.76
2019-06-01T11:36:07.561Z,94831.06
2019-06-01T11:41:09.554Z,94838.12
2019-06-01T11:46:12.051Z,94836.94
2019-06-01T11:51:14.049Z,94834.52
2019-06-01T11:56:15.953Z,94825.16
2019-06-01T12:01:18.420Z,94822.95
2019-06-01T12:06:20.244Z,94821.05
2019-06-01T12:11:22.242Z,94817.59
2019-06-01T12:16:24.362Z,94811.88
2019-06-01T12:21:26.311Z,94810.61
2019-06-01T12:26:28.274Z,94811.91
2019-06-01T12:31:30.412Z,94813.08
2019-06-01T12:36:32.316Z,94812.85
2019-06-01T12:41:34.250Z,94810.68
2019-06-01T12:46:37.048Z,94806.45
2019-06-01T12:51:40.504Z,94802.21
2019-06-01T12:56:42.897Z,94799.44
2019-06-01T13:01:45.272Z,94798.51
2019-06-01T13:06:51.060Z,94791.12
2019-06-01T13:11:51.506Z,94789.14
2019-06-01T13:17:06.042Z,94780.25
2019-06-01T13:21:56.983Z,94775.02
2019-06-01T13:26:58.853Z,94771.48
2019-06-01T13:32:00.786Z,94766.62
2019-06-01T13:37:02.618Z,94760.55
2019-06-01T13:42:04.740Z,94757.17
2019-06-01T13:47:06.647Z,94759.87
2019-06-01T13:52:08.759Z,94757.42
2019-06-01T13:57:10.794Z,94745.14
2019-06-01T14:02:12.733Z,94748.17
2019-06-01T14:07:14.665Z,94746.98
2019-06-01T14:12:19.318Z,94750.22
2019-06-01T14:17:21.225Z,94745.98
2019-06-01T14:22:23.160Z,94746.23
2019-06-01T14:27:24.999Z,94743.88
2019-06-01T14:32:28.196Z,94743.38
2019-06-01T14:37:30.317Z,94735.88
2019-06-01T14:42:32.122Z,94725.03
2019-06-01T14:47:34.051Z,94719.52
2019-06-01T14:52:35.967Z,94713.73
2019-06-01T14:57:38.099Z,94718.09
2019-06-01T15:02:40.346Z,94708.29
2019-06-01T15:07:42.925Z,94723.97
2019-06-01T15:12:44.824Z,94717.01
2019-06-01T15:17:46.640Z,94706.94
2019-06-01T15:22:49.931Z,94710.97
2019-06-01T15:27:52.693Z,94720.69
2019-06-01T15:32:56.112Z,94706.91
2019-06-01T15:38:02.069Z,94714.38
2019-06-01T15:43:03.078Z,94715.88
2019-06-01T15:48:05.075Z,94717.08
2019-06-01T15:53:07.059Z,94717.02
2019-06-01T15:58:09.144Z,94717.85
2019-06-01T16:03:12.813Z,94725.06
2019-06-01T16:08:15.151Z,94729.63
2019-06-01T16:13:17.202Z,94729.60
2019-06-01T16:18:19.209Z,94737.89
2019-06-01T16:23:21.055Z,94744.13
2019-06-01T16:28:23.228Z,94744.47
2019-06-01T16:33:25.188Z,94743.04
2019-06-01T16:38:28.409Z,94740.51
2019-06-01T16:43:31.596Z,94746.02
2019-06-01T16:48:33.653Z,94743.44
2019-06-01T16:53:35.619Z,94743.86
2019-06-01T16:58:37.547Z,94755.30
2019-06-01T17:03:39.812Z,94765.66
2019-06-01T17:08:41.706Z,94767.70
2019-06-01T17:13:43.541Z,94776.02
2019-06-01T17:18:45.618Z,94777.05
2019-06-01T17:23:48.504Z,94788.13
2019-06-01T17:28:50.741Z,94790.73
2019-06-01T17:33:53.023Z,94784.56
2019-06-01T17:38:55.756Z,94785.67
2019-06-01T17:43:57.726Z,94790.34
2019-06-01T17:49:00.029Z,94785.48
2019-06-01T17:54:02.641Z,94795.44
2019-06-01T17:59:07.457Z,94785.25
2019-06-01T18:04:10.064Z,94805.72
2019-06-01T18:09:12.357Z,94809.92
2019-06-01T18:14:14.746Z,94814.97
2019-06-01T18:19:16.761Z,94822.66
2019-06-01T18:24:19.998Z,94827.40
2019-06-01T18:29:22.196Z,94824.23
2019-06-01T18:34:24.005Z,94820.42
2019-06-01T18:39:25.897Z,94818.56
2019-06-01T18:44:27.989Z,94829.34
2019-06-01T18:49:30.052Z,94843.22
2019-06-01T18:54:32.155Z,94856.02
2019-06-01T18:59:34.241Z,94859.78
2019-06-01T19:04:36.160Z,94861.55
2019-06-01T19:09:38.183Z,94857.72
2019-06-01T19:14:40.267Z,94858.19
2019-06-01T19:19:42.248Z,94858.19
2019-06-01T19:24:44.374Z,94865.67
2019-06-01T19:29:46.581Z,94857.28
2019-06-01T19:34:48.588Z,94863.53
2019-06-01T19:39:52.448Z,94863.09
2019-06-01T19:44:54.616Z,94867.80
2019-06-01T19:49:58.317Z,94876.80
2019-06-01T19:55:00.752Z,94878.41
2019-06-01T20:00:05.724Z,94882.94
2019-06-01T20:05:07.943Z,94880.66
2019-06-01T20:10:10.185Z,94884.80
2019-06-01T20:15:13.317Z,94890.97
2019-06-01T20:20:19.333Z,94905.30
2019-06-01T20:25:21.820Z,94899.75
2019-06-01T20:30:23.817Z,94900.00
2019-06-01T20:35:25.692Z,94907.88
2019-06-01T20:40:27.589Z,94908.41
2019-06-01T20:45:29.456Z,94898.08
2019-06-01T20:50:31.416Z,94901.64
2019-06-01T20:55:34.661Z,94895.19
2019-06-01T21:00:36.745Z,94880.52
2019-06-01T21:05:39.292Z,94878.77
2019-06-01T21:10:41.269Z,94898.25
2019-06-01T21:15:43.400Z,94892.20
2019-06-01T21:20:47.119Z,94888.09
2019-06-01T21:25:49.172Z,94887.00
2019-06-01T21:30:51.163Z,94885.75
2019-06-01T21:35:53.239Z,94895.59
2019-06-01T21:40:55.280Z,94892.28
2019-06-01T21:45:57.941Z,94884.30
2019-06-01T21:51:01.837Z,94884.30
2019-06-01T21:56:04.327Z,94898.98
2019-06-01T22:01:06.510Z,94909.52
2019-06-01T22:06:08.662Z,94911.89
2019-06-01T22:11:10.774Z,94902.86
2019-06-01T22:16:12.983Z,94895.71
2019-06-01T22:21:14.936Z,94911.63
2019-06-01T22:26:17.886Z,94901.25
2019-06-01T22:31:22.051Z,94898.41
2019-06-01T22:36:25.167Z,94893.67
2019-06-01T22:41:28.029Z,94884.34
2019-06-01T22:46:30.222Z,94891.32
2019-06-01T22:51:33.361Z,94890.54
2019-06-01T22:56:35.341Z,94896.78
2019-06-01T23:01:37.184Z,94890.93
2019-06-01T23:06:40.159Z,94891.05
2019-06-01T23:11:42.040Z,94893.00
2019-06-01T23:16:43.928Z,94893.41
2019-06-01T23:21:45.766Z,94883.48
2019-06-01T23:26:47.588Z,94872.44
2019-06-01T23:31:49.400Z,94870.38
2019-06-01T23:36:51.292Z,94880.74
2019-06-01T23:41:53.159Z,94875.56
2019-06-01T23:46:55.060Z,94874.75
2019-06-01T23:51:56.862Z,94868.03
2019-06-01T23:56:58.735Z,94862.86
